createdAt,value
2019-02-17T00:01:22.147Z,21.38
2019-02-17T00:06:25.786Z,21.38
2019-02-17T00:11:29.261Z,21.39
2019-02-17T00:16:32.738Z,21.39
2019-02-17T00:21:36.214Z,21.38
2019-02-17T00:26:39.693Z,21.38
2019-02-17T00:31:43.166Z,21.36
2019-02-17T00:36:46.645Z,21.36
2019-02-17T00:41:50.190Z,21.35
2019-02-17T00:46:53.671Z,21.35
2019-02-17T00:51:57.147Z,21.34
2019-02-17T00:57:00.627Z,21.33
2019-02-17T01:02:04.109Z,21.34
2019-02-17T01:07:07.592Z,21.33
2019-02-17T01:12:11.076Z,21.31
2019-02-17T01:17:14.551Z,21.32
2019-02-17T01:22:18.027Z,21.30
2019-02-17T01:27:21.569Z,21.31
2019-02-17T01:32:24.990Z,21.31
2019-02-17T01:37:28.471Z,21.33
2019-02-17T01:42:31.951Z,21.34
2019-02-17T01:47:35.422Z,21.36
2019-02-17T01:52:38.898Z,21.36
2019-02-17T01:57:42.376Z,21.36
2019-02-17T02:02:45.855Z,21.35
2019-02-17T02:07:49.336Z,21.35
2019-02-17T02:12:52.881Z,21.35
2019-02-17T02:17:56.371Z,21.35
2019-02-17T02:22:59.850Z,21.33
2019-02-17T02:28:03.321Z,21.34
2019-02-17T02:33:06.799Z,21.32
2019-02-17T02:38:10.274Z,21.32
2019-02-17T02:43:13.755Z,21.32
2019-02-17T02:48:17.225Z,21.31
2019-02-17T02:53:20.707Z,21.31
2019-02-17T02:58:24.193Z,21.30
2019-02-17T03:03:27.659Z,21.30
2019-02-17T03:08:31.141Z,21.31
2019-02-17T03:13:34.638Z,21.30
2019-02-17T03:18:38.098Z,21.30
2019-02-17T03:23:41.574Z,21.32
2019-02-17T03:28:45.059Z,21.32
2019-02-17T03:33:48.551Z,21.34
2019-02-17T03:38:52.012Z,21.34
2019-02-17T03:43:55.483Z,21.34
2019-02-17T03:48:58.954Z,21.35
2019-02-17T03:54:02.431Z,21.35
2019-02-17T03:59:05.906Z,21.33
2019-02-17T04:04:09.389Z,21.34
2019-02-17T04:09:12.865Z,21.34
2019-02-17T04:14:16.343Z,21.33
2019-02-17T04:19:19.820Z,21.32
2019-02-17T04:24:23.307Z,21.32
2019-02-17T04:29:26.781Z,21.32
2019-02-17T04:34:30.263Z,21.33
2019-02-17T04:39:33.734Z,21.35
2019-02-17T04:44:37.211Z,21.35
2019-02-17T04:49:40.687Z,21.36
2019-02-17T04:54:44.173Z,21.36
2019-02-17T04:59:47.651Z,21.38
2019-02-17T05:04:51.128Z,21.36
2019-02-17T05:09:54.594Z,21.36
2019-02-17T05:14:58.072Z,21.36
2019-02-17T05:20:01.548Z,21.34
2019-02-17T05:25:06.912Z,21.33
2019-02-17T05:30:11.538Z,21.32
2019-02-17T05:35:15.021Z,21.31
2019-02-17T05:40:18.488Z,21.30
2019-02-17T05:45:21.974Z,21.30
2019-02-17T05:50:25.442Z,21.29
2019-02-17T05:55:28.918Z,21.30
2019-02-17T06:00:32.943Z,21.30
2019-02-17T06:05:36.422Z,21.32
2019-02-17T06:10:39.900Z,21.34
2019-02-17T06:15:43.375Z,21.35
2019-02-17T06:20:46.852Z,21.35
2019-02-17T06:25:50.328Z,21.35
2019-02-17T06:30:53.803Z,21.35
2019-02-17T06:35:57.280Z,21.36
2019-02-17T06:41:00.756Z,21.35
2019-02-17T06:46:04.302Z,21.34
2019-02-17T06:51:07.779Z,21.34
2019-02-17T06:56:21.717Z,21.34
2019-02-17T07:01:25.239Z,21.33
2019-02-17T07:06:39.386Z,21.33
2019-02-17T07:11:42.835Z,21.29
2019-02-17T07:16:46.315Z,21.29
2019-02-17T07:21:49.790Z,21.30
2019-02-17T07:26:53.266Z,21.30
2019-02-17T07:31:56.743Z,21.35
2019-02-17T07:37:00.217Z,21.40
2019-02-17T07:42:03.699Z,21.44
2019-02-17T07:47:07.179Z,21.47
2019-02-17T07:52:10.661Z,21.48
2019-02-17T07:57:14.184Z,21.28
2019-02-17T08:02:17.679Z,20.81
2019-02-17T08:07:21.155Z,20.58
2019-02-17T08:12:24.656Z,20.77
2019-02-17T08:17:28.179Z,20.86
2019-02-17T08:22:31.663Z,20.93
2019-02-17T08:27:35.131Z,21.02
2019-02-17T08:32:38.611Z,21.06
2019-02-17T08:37:42.138Z,21.07
2019-02-17T08:42:45.641Z,21.07
2019-02-17T08:47:49.134Z,21.10
2019-02-17T08:52:52.636Z,21.12
2019-02-17T08:57:56.207Z,21.14
2019-02-17T09:02:59.690Z,21.16
2019-02-17T09:08:04.053Z,21.17
2019-02-17T09:13:07.556Z,21.19
2019-02-17T09:18:11.047Z,21.22
2019-02-17T09:23:14.545Z,21.23
2019-02-17T09:28:18.036Z,21.26
2019-02-17T09:33:21.605Z,21.26
2019-02-17T09:38:25.093Z,21.28
2019-02-17T09:43:28.590Z,21.27
2019-02-17T09:48:32.082Z,21.29
2019-02-17T09:53:35.577Z,21.30
2019-02-17T09:58:39.067Z,21.29
2019-02-17T10:03:42.563Z,21.30
2019-02-17T10:08:46.054Z,21.32
2019-02-17T10:13:49.543Z,21.30
2019-02-17T10:18:53.039Z,21.32
2019-02-17T10:23:56.597Z,21.34
2019-02-17T10:29:00.111Z,21.32
2019-02-17T10:34:03.610Z,21.33
2019-02-17T10:39:07.538Z,21.33
2019-02-17T10:44:11.032Z,21.33
2019-02-17T10:49:14.523Z,21.35
2019-02-17T10:54:18.017Z,21.36
2019-02-17T10:59:21.509Z,21.39
2019-02-17T11:04:25.001Z,21.38
2019-02-17T11:09:28.500Z,21.39
2019-02-17T11:14:31.989Z,21.40
2019-02-17T11:19:35.484Z,21.41
2019-02-17T11:24:38.974Z,21.40
2019-02-17T11:29:42.474Z,21.40
2019-02-17T11:34:45.963Z,21.40
2019-02-17T11:39:49.450Z,21.31
2019-02-17T11:44:52.943Z,21.40
2019-02-17T11:49:56.437Z,21.42
2019-02-17T11:54:59.941Z,21.43
2019-02-17T12:00:03.867Z,21.43
2019-02-17T12:05:09.302Z,21.43
2019-02-17T12:10:12.927Z,21.45
2019-02-17T12:15:16.430Z,21.46
2019-02-17T12:20:34.600Z,21.44
2019-02-17T12:25:42.717Z,21.44
2019-02-17T12:30:47.992Z,21.42
2019-02-17T12:35:51.510Z,21.43
2019-02-17T12:40:54.997Z,21.44
2019-02-17T12:45:58.489Z,21.44
2019-02-17T12:51:01.987Z,21.44
2019-02-17T12:56:05.477Z,21.45
2019-02-17T13:01:08.966Z,21.45
2019-02-17T13:06:12.459Z,21.45
2019-02-17T13:11:16.019Z,21.46
2019-02-17T13:16:19.514Z,21.47
2019-02-17T13:21:23.006Z,21.47
2019-02-17T13:26:26.498Z,21.47
2019-02-17T13:31:29.976Z,21.48
2019-02-17T13:36:33.445Z,21.50
2019-02-17T13:41:37.779Z,21.51
2019-02-17T13:46:41.254Z,21.51
2019-02-17T13:51:44.730Z,21.51
2019-02-17T13:56:48.208Z,21.52
2019-02-17T14:01:51.677Z,21.53
2019-02-17T14:06:55.153Z,21.54
2019-02-17T14:11:58.631Z,21.54
2019-02-17T14:17:02.110Z,21.55
2019-02-17T14:22:05.578Z,21.54
2019-02-17T14:27:09.054Z,21.55
2019-02-17T14:32:12.534Z,21.55
2019-02-17T14:37:16.010Z,21.55
2019-02-17T14:42:19.487Z,21.55
2019-02-17T14:47:22.964Z,21.57
2019-02-17T14:52:26.439Z,21.58
2019-02-17T14:57:29.914Z,21.58
2019-02-17T15:02:33.389Z,21.59
2019-02-17T15:07:36.866Z,21.59
2019-02-17T15:12:40.369Z,21.59
2019-02-17T15:17:43.845Z,21.58
2019-02-17T15:22:47.318Z,21.59
2019-02-17T15:27:50.793Z,21.58
2019-02-17T15:33:03.274Z,21.57
2019-02-17T15:37:59.480Z,21.58
2019-02-17T15:43:02.958Z,21.58
2019-02-17T15:48:06.440Z,21.57
2019-02-17T15:53:09.913Z,21.57
2019-02-17T15:58:13.391Z,21.57
2019-02-17T16:03:16.865Z,21.56
2019-02-17T16:08:20.360Z,21.56
2019-02-17T16:13:23.841Z,21.56
2019-02-17T16:18:28.077Z,21.57
2019-02-17T16:23:31.558Z,21.57
2019-02-17T16:28:35.029Z,21.57
2019-02-17T16:33:38.507Z,21.56
2019-02-17T16:38:41.981Z,21.55
2019-02-17T16:43:45.455Z,21.56
2019-02-17T16:48:48.936Z,21.55
2019-02-17T16:53:52.418Z,21.56
2019-02-17T16:58:55.898Z,21.56
2019-02-17T17:03:59.443Z,21.55
2019-02-17T17:09:03.096Z,21.55
2019-02-17T17:14:08.921Z,21.55
2019-02-17T17:19:11.782Z,21.57
2019-02-17T17:24:15.258Z,21.58
2019-02-17T17:29:18.738Z,21.60
2019-02-17T17:34:22.277Z,21.60
2019-02-17T17:39:25.701Z,21.60
2019-02-17T17:44:29.182Z,21.62
2019-02-17T17:49:32.668Z,21.62
2019-02-17T17:54:36.165Z,21.62
2019-02-17T17:59:39.650Z,21.63
2019-02-17T18:04:43.163Z,21.62
2019-02-17T18:09:46.653Z,21.64
2019-02-17T18:14:50.132Z,21.64
2019-02-17T18:19:53.617Z,21.65
2019-02-17T18:24:57.107Z,21.65
2019-02-17T18:30:00.595Z,21.66
2019-02-17T18:35:05.227Z,21.66
2019-02-17T18:40:11.563Z,21.66
2019-02-17T18:45:16.094Z,21.66
2019-02-17T18:50:19.856Z,21.66
2019-02-17T18:55:23.347Z,21.66
2019-02-17T19:00:27.410Z,21.67
2019-02-17T19:05:32.207Z,21.66
2019-02-17T19:10:35.982Z,21.66
2019-02-17T19:15:39.457Z,21.67
2019-02-17T19:20:42.951Z,21.67
2019-02-17T19:25:46.441Z,21.68
2019-02-17T19:30:49.933Z,21.70
2019-02-17T19:35:53.421Z,21.61
2019-02-17T19:40:56.916Z,21.71
2019-02-17T19:46:00.405Z,21.71
2019-02-17T19:51:03.904Z,21.70
2019-02-17T19:56:07.667Z,21.70
2019-02-17T20:01:11.264Z,21.71
2019-02-17T20:06:16.398Z,21.72
2019-02-17T20:11:19.892Z,21.73
2019-02-17T20:16:23.382Z,21.72
2019-02-17T20:21:26.874Z,21.73
2019-02-17T20:26:30.372Z,21.73
2019-02-17T20:31:33.866Z,21.73
2019-02-17T20:36:37.447Z,21.73
2019-02-17T20:41:40.931Z,21.73
2019-02-17T20:46:44.427Z,21.73
2019-02-17T20:51:47.918Z,21.74
2019-02-17T20:56:51.410Z,21.73
2019-02-17T21:01:54.898Z,21.73
2019-02-17T21:06:58.396Z,21.72
2019-02-17T21:12:01.890Z,21.71
2019-02-17T21:17:05.471Z,21.71
2019-02-17T21:22:08.947Z,21.69
2019-02-17T21:27:12.446Z,21.69
2019-02-17T21:32:15.938Z,21.65
2019-02-17T21:37:19.441Z,21.63
2019-02-17T21:42:22.918Z,21.61
2019-02-17T21:47:26.414Z,21.61
2019-02-17T21:52:29.903Z,21.59
2019-02-17T21:57:33.394Z,21.57
2019-02-17T22:02:36.895Z,21.56
2019-02-17T22:07:40.407Z,21.54
2019-02-17T22:12:43.872Z,21.54
2019-02-17T22:17:47.367Z,21.51
2019-02-17T22:22:50.860Z,21.51
2019-02-17T22:27:54.350Z,21.50
2019-02-17T22:32:57.845Z,21.49
2019-02-17T22:38:01.338Z,21.49
2019-02-17T22:43:04.813Z,21.47
2019-02-17T22:48:08.289Z,21.47
2019-02-17T22:53:12.037Z,21.48
2019-02-17T22:58:15.510Z,21.46
2019-02-17T23:03:18.997Z,21.46
2019-02-17T23:08:22.459Z,21.45
2019-02-17T23:13:25.940Z,21.46
2019-02-17T23:18:29.419Z,21.44
2019-02-17T23:23:32.904Z,21.45
2019-02-17T23:28:36.386Z,21.44
2019-02-17T23:33:39.864Z,21.43
2019-02-17T23:38:43.345Z,21.42
2019-02-17T23:43:46.827Z,21.42
2019-02-17T23:48:50.306Z,21.42
2019-02-17T23:53:53.789Z,21.41
2019-02-17T23:58:57.261Z,21.40
